createdAt,value
2023-05-02T00:02:21.083Z,14.93
2023-05-02T00:04:48.652Z,14.05
2023-05-02T00:07:16.065Z,14.55
2023-05-02T00:09:43.625Z,13.65
2023-05-02T00:12:10.822Z,14.25
2023-05-02T00:14:38.405Z,14.88
2023-05-02T00:17:05.826Z,13.70
2023-05-02T00:19:37.848Z,15.27
2023-05-02T00:22:05.053Z,15.65
2023-05-02T00:24:33.299Z,15.27
2023-05-02T00:27:00.913Z,13.75
2023-05-02T00:29:28.470Z,15.05
2023-05-02T00:31:55.636Z,14.05
2023-05-02T00:34:23.191Z,15.57
2023-05-02T00:36:50.566Z,17.02
2023-05-02T00:39:18.082Z,19.70
2023-05-02T00:41:45.262Z,19.75
2023-05-02T00:44:14.937Z,17.95
2023-05-02T00:46:44.038Z,12.90
2023-05-02T00:49:11.537Z,12.15
2023-05-02T00:51:42.479Z,11.95
2023-05-02T00:54:11.106Z,11.27
2023-05-02T00:56:38.559Z,13.05
2023-05-02T00:59:08.937Z,17.17
2023-05-02T01:02:14.674Z,20.45
2023-05-02T01:05:17.175Z,21.33
2023-05-02T01:07:57.530Z,16.80
2023-05-02T01:10:42.915Z,18.02
2023-05-02T01:13:17.562Z,16.27
2023-05-02T01:15:48.121Z,18.50
2023-05-02T01:18:18.672Z,16.63
2023-05-02T01:20:50.869Z,17.85
2023-05-02T01:23:29.613Z,18.38
2023-05-02T01:26:05.843Z,15.05
2023-05-02T01:29:00.439Z,17.60
2023-05-02T01:31:42.964Z,15.48
2023-05-02T01:34:11.441Z,15.98
2023-05-02T01:36:44.050Z,15.85
2023-05-02T01:39:18.832Z,16.33
2023-05-02T01:41:52.334Z,16.30
2023-05-02T01:44:22.512Z,15.18
2023-05-02T01:46:52.139Z,15.98
2023-05-02T01:49:19.998Z,16.40
2023-05-02T01:51:50.428Z,17.45
2023-05-02T01:54:20.360Z,17.33
2023-05-02T01:56:49.419Z,18.58
2023-05-02T01:59:20.217Z,20.92
2023-05-02T02:01:50.322Z,20.55
2023-05-02T02:04:19.986Z,19.15
2023-05-02T02:06:53.855Z,19.83
2023-05-02T02:09:21.756Z,18.50
2023-05-02T02:12:06.303Z,17.10
2023-05-02T02:14:48.455Z,16.80
2023-05-02T02:17:25.900Z,16.13
2023-05-02T02:19:55.213Z,15.93
2023-05-02T02:22:26.921Z,16.27
2023-05-02T02:24:55.270Z,16.23
2023-05-02T02:27:22.872Z,14.63
2023-05-02T02:29:50.254Z,14.00
2023-05-02T02:32:17.686Z,16.05
2023-05-02T02:34:45.090Z,17.55
2023-05-02T02:37:19.712Z,15.25
2023-05-02T02:40:09.807Z,16.88
2023-05-02T02:42:50.208Z,16.85
2023-05-02T02:45:38.611Z,16.42
2023-05-02T02:48:21.382Z,16.25
2023-05-02T02:51:06.896Z,15.65
2023-05-02T02:53:56.752Z,14.25
2023-05-02T02:56:46.000Z,12.18
2023-05-02T02:59:19.519Z,12.52
2023-05-02T03:01:54.013Z,13.10
2023-05-02T03:04:23.176Z,13.50
2023-05-02T03:06:50.946Z,12.10
2023-05-02T03:09:19.139Z,12.88
2023-05-02T03:11:48.505Z,13.23
2023-05-02T03:14:16.608Z,15.13
2023-05-02T03:16:45.153Z,14.55
2023-05-02T03:19:15.734Z,14.50
2023-05-02T03:21:43.648Z,15.68
2023-05-02T03:24:19.224Z,17.48
2023-05-02T03:26:48.197Z,14.93
2023-05-02T03:29:19.484Z,15.85
2023-05-02T03:31:46.789Z,16.48
2023-05-02T03:34:14.324Z,15.23
2023-05-02T03:36:43.014Z,12.57
2023-05-02T03:39:11.152Z,14.18
2023-05-02T03:41:42.594Z,15.63
2023-05-02T03:44:14.085Z,16.15
2023-05-02T03:46:41.956Z,15.85
2023-05-02T03:49:12.303Z,16.60
2023-05-02T03:51:42.258Z,15.93
2023-05-02T03:54:10.214Z,15.43
2023-05-02T03:56:42.717Z,15.18
2023-05-02T03:59:22.880Z,15.57
2023-05-02T04:01:51.639Z,15.48
2023-05-02T04:04:22.610Z,16.63
2023-05-02T04:06:52.420Z,15.35
2023-05-02T04:09:25.349Z,16.15
2023-05-02T04:12:00.691Z,13.45
2023-05-02T04:14:28.603Z,14.13
2023-05-02T04:16:57.304Z,16.45
2023-05-02T04:19:39.684Z,17.95
2023-05-02T04:22:07.128Z,17.15
2023-05-02T04:24:38.429Z,18.77
2023-05-02T04:27:05.752Z,18.13
2023-05-02T04:29:33.644Z,16.50
2023-05-02T04:32:01.643Z,19.98
2023-05-02T04:34:30.561Z,15.18
2023-05-02T04:36:57.832Z,12.85
2023-05-02T04:39:26.910Z,13.35
2023-05-02T04:42:07.642Z,14.75
2023-05-02T04:44:42.321Z,13.85
2023-05-02T04:47:10.033Z,15.80
2023-05-02T04:49:37.511Z,18.10
2023-05-02T04:52:04.956Z,16.98
2023-05-02T04:54:34.832Z,18.45
2023-05-02T04:57:03.814Z,37.85
2023-05-02T04:59:35.171Z,45.45
2023-05-02T05:02:03.829Z,47.05
2023-05-02T05:04:31.736Z,37.20
2023-05-02T05:06:59.107Z,34.03
2023-05-02T05:09:30.507Z,34.22
2023-05-02T05:11:57.712Z,21.63
2023-05-02T05:14:25.552Z,16.42
2023-05-02T05:16:54.994Z,19.27
2023-05-02T05:19:23.348Z,16.52
2023-05-02T05:21:51.176Z,16.67
2023-05-02T05:24:20.161Z,16.52
2023-05-02T05:26:47.969Z,16.73
2023-05-02T05:29:15.827Z,18.30
2023-05-02T05:31:44.174Z,16.00
2023-05-02T05:34:14.990Z,17.00
2023-05-02T05:36:43.308Z,16.17
2023-05-02T05:39:13.434Z,16.55
2023-05-02T05:41:43.439Z,17.20
2023-05-02T05:44:12.607Z,17.48
2023-05-02T05:46:39.922Z,18.00
2023-05-02T05:49:10.065Z,20.13
2023-05-02T05:51:37.665Z,17.13
2023-05-02T05:54:05.249Z,16.45
2023-05-02T05:56:32.991Z,20.17
2023-05-02T05:59:09.432Z,15.40
2023-05-02T06:01:38.323Z,18.35
2023-05-02T06:04:07.604Z,19.45
2023-05-02T06:06:38.255Z,17.88
2023-05-02T06:09:06.164Z,30.88
2023-05-02T06:11:33.946Z,15.15
2023-05-02T06:14:01.996Z,10.45
2023-05-02T06:16:29.203Z,11.55
2023-05-02T06:18:56.857Z,8.32
2023-05-02T06:21:24.087Z,8.73
2023-05-02T06:23:51.705Z,8.05
2023-05-02T06:26:18.958Z,6.70
2023-05-02T06:28:46.532Z,6.95
2023-05-02T06:31:13.746Z,6.70
2023-05-02T06:33:41.323Z,5.03
2023-05-02T06:36:08.700Z,6.25
2023-05-02T06:38:36.235Z,5.70
2023-05-02T06:41:03.440Z,4.57
2023-05-02T06:43:31.041Z,5.80
2023-05-02T06:45:58.986Z,8.20
2023-05-02T06:48:26.519Z,6.57
2023-05-02T06:50:54.481Z,5.18
2023-05-02T06:53:22.072Z,5.63
2023-05-02T06:55:49.967Z,4.80
2023-05-02T06:58:17.553Z,5.35
2023-05-02T07:00:44.804Z,5.55
2023-05-02T07:03:13.288Z,6.65
2023-05-02T07:05:40.646Z,5.47
2023-05-02T07:08:09.220Z,6.10
2023-05-02T07:10:36.762Z,5.68
2023-05-02T07:13:04.431Z,5.93
2023-05-02T07:15:31.785Z,5.72
2023-05-02T07:17:59.419Z,7.28
2023-05-02T07:20:26.733Z,7.07
2023-05-02T07:25:45.650Z,6.15
2023-05-02T07:28:13.213Z,5.88
2023-05-02T07:30:40.428Z,5.90
2023-05-02T07:33:08.240Z,5.97
2023-05-02T07:35:35.790Z,6.85
2023-05-02T07:38:03.299Z,6.55
2023-05-02T07:40:30.643Z,6.40
2023-05-02T07:43:01.197Z,5.43
2023-05-02T07:45:29.757Z,6.50
2023-05-02T07:47:57.408Z,5.72
2023-05-02T07:50:24.768Z,6.25
2023-05-02T07:52:53.061Z,5.65
2023-05-02T07:55:21.714Z,5.93
2023-05-02T07:57:49.281Z,5.57
2023-05-02T08:00:17.091Z,4.35
2023-05-02T08:02:46.500Z,3.83
2023-05-02T08:05:13.932Z,4.30
2023-05-02T08:07:41.615Z,4.65
2023-05-02T08:10:11.574Z,2.70
2023-05-02T08:12:42.148Z,3.53
2023-05-02T08:15:12.702Z,3.60
2023-05-02T08:17:40.766Z,3.33
2023-05-02T08:20:08.570Z,2.38
2023-05-02T08:22:36.270Z,2.65
2023-05-02T08:25:06.140Z,2.83
2023-05-02T08:27:36.351Z,3.80
2023-05-02T08:30:09.168Z,3.67
2023-05-02T08:32:38.779Z,4.03
2023-05-02T08:35:07.372Z,3.38
2023-05-02T08:37:37.134Z,4.53
2023-05-02T08:40:06.000Z,3.70
2023-05-02T08:42:34.973Z,4.20
2023-05-02T08:45:02.933Z,3.10
2023-05-02T08:47:32.662Z,2.97
2023-05-02T08:50:01.166Z,3.33
2023-05-02T08:52:30.752Z,2.78
2023-05-02T08:55:01.195Z,3.00
2023-05-02T08:57:32.473Z,2.95
2023-05-02T08:59:59.803Z,2.42
2023-05-02T09:02:43.846Z,3.00
2023-05-02T09:05:12.832Z,3.20
2023-05-02T09:07:48.706Z,3.70
2023-05-02T09:10:16.360Z,3.20
2023-05-02T09:12:44.191Z,3.50
2023-05-02T09:15:11.881Z,2.72
2023-05-02T09:17:41.388Z,2.75
2023-05-02T09:20:09.732Z,3.20
2023-05-02T09:22:38.724Z,2.88
2023-05-02T09:25:07.668Z,3.33
2023-05-02T09:27:52.570Z,2.42
2023-05-02T09:30:24.420Z,3.40
2023-05-02T09:32:56.959Z,3.28
2023-05-02T09:35:24.944Z,2.47
2023-05-02T09:37:59.543Z,2.90
2023-05-02T09:40:28.237Z,2.80
2023-05-02T09:42:56.696Z,3.90
2023-05-02T09:45:26.166Z,2.40
2023-05-02T09:47:54.239Z,2.65
2023-05-02T09:50:39.186Z,2.38
2023-05-02T09:53:09.991Z,2.42
2023-05-02T09:55:37.803Z,1.80
2023-05-02T09:58:06.902Z,2.88
2023-05-02T10:00:44.900Z,2.80
2023-05-02T10:03:20.694Z,1.92
2023-05-02T10:08:19.042Z,2.92
2023-05-02T10:10:54.019Z,2.60
2023-05-02T10:13:24.628Z,1.80
2023-05-02T10:16:00.976Z,5.22
2023-05-02T10:18:39.187Z,2.08
2023-05-02T10:21:10.887Z,2.08
2023-05-02T10:23:45.996Z,1.55
2023-05-02T10:26:17.692Z,1.50
2023-05-02T10:28:46.222Z,1.67
2023-05-02T10:31:15.159Z,1.70
2023-05-02T10:33:46.365Z,1.73
2023-05-02T10:36:14.018Z,1.65
2023-05-02T10:38:42.712Z,1.83
2023-05-02T10:41:15.007Z,2.10
2023-05-02T10:43:47.977Z,2.55
2023-05-02T10:46:34.587Z,1.50
2023-05-02T10:49:08.543Z,2.25
2023-05-02T10:51:39.365Z,2.05
2023-05-02T10:54:23.914Z,1.70
2023-05-02T10:57:06.770Z,1.98
2023-05-02T10:59:38.710Z,1.92
2023-05-02T11:02:28.404Z,3.58
2023-05-02T11:05:06.674Z,2.58
2023-05-02T11:07:39.392Z,2.95
2023-05-02T11:10:22.150Z,1.98
2023-05-02T11:12:54.056Z,2.17
2023-05-02T11:15:32.917Z,2.30
2023-05-02T11:18:08.040Z,2.47
2023-05-02T11:20:37.474Z,1.65
2023-05-02T11:23:22.954Z,2.00
2023-05-02T11:25:52.735Z,1.77
2023-05-02T11:28:38.681Z,1.90
2023-05-02T11:31:30.845Z,2.08
2023-05-02T11:34:03.093Z,2.75
2023-05-02T11:36:33.947Z,2.40
2023-05-02T11:39:08.127Z,2.60
2023-05-02T11:41:47.139Z,1.90
2023-05-02T11:44:14.662Z,1.77
2023-05-02T11:46:42.888Z,6.28
2023-05-02T11:49:14.893Z,3.28
2023-05-02T11:51:43.131Z,2.42
2023-05-02T11:54:19.358Z,2.78
2023-05-02T11:56:48.396Z,4.40
2023-05-02T11:59:15.766Z,3.13
2023-05-02T12:01:51.283Z,2.65
2023-05-02T12:04:22.241Z,2.50
2023-05-02T12:06:58.915Z,2.95
2023-05-02T12:09:26.622Z,2.85
2023-05-02T12:11:55.092Z,1.95
2023-05-02T12:14:33.779Z,2.15
2023-05-02T12:17:04.532Z,3.05
2023-05-02T12:19:37.374Z,3.83
2023-05-02T12:22:06.419Z,1.92
2023-05-02T12:24:34.572Z,2.47
2023-05-02T12:27:13.954Z,3.10
2023-05-02T12:29:41.930Z,3.33
2023-05-02T12:32:10.821Z,2.40
2023-05-02T12:34:39.232Z,1.80
2023-05-02T12:37:08.348Z,2.28
2023-05-02T12:39:43.631Z,1.70
2023-05-02T12:42:16.893Z,2.03
2023-05-02T12:44:46.343Z,1.83
2023-05-02T12:47:15.888Z,2.35
2023-05-02T12:49:57.909Z,2.50
2023-05-02T12:52:47.144Z,2.75
2023-05-02T12:55:22.019Z,1.65
2023-05-02T12:57:49.784Z,2.00
2023-05-02T13:00:18.421Z,2.42
2023-05-02T13:02:47.714Z,1.63
2023-05-02T13:05:16.017Z,1.50
2023-05-02T13:07:43.735Z,1.88
2023-05-02T13:10:14.776Z,1.70
2023-05-02T13:12:44.434Z,1.80
2023-05-02T13:15:13.624Z,2.50
2023-05-02T13:17:41.657Z,2.55
2023-05-02T13:20:09.722Z,2.17
2023-05-02T13:22:40.046Z,2.40
2023-05-02T13:25:09.057Z,2.05
2023-05-02T13:27:37.745Z,2.20
2023-05-02T13:30:08.766Z,2.20
2023-05-02T13:32:36.883Z,3.33
2023-05-02T13:35:04.391Z,4.28
2023-05-02T13:37:32.595Z,2.80
2023-05-02T13:40:00.134Z,2.20
2023-05-02T13:42:28.007Z,3.00
2023-05-02T13:44:55.235Z,2.63
2023-05-02T13:47:22.962Z,1.80
2023-05-02T13:49:50.707Z,1.88
2023-05-02T13:52:18.486Z,1.83
2023-05-02T13:54:45.884Z,1.98
2023-05-02T13:57:13.579Z,3.40
2023-05-02T13:59:41.122Z,1.90
2023-05-02T14:02:09.023Z,1.65
2023-05-02T14:04:36.336Z,1.75
2023-05-02T14:07:04.108Z,1.67
2023-05-02T14:09:32.191Z,2.17
2023-05-02T14:12:00.135Z,2.92
2023-05-02T14:14:27.533Z,2.33
2023-05-02T14:16:58.651Z,1.60
2023-05-02T14:19:28.882Z,2.15
2023-05-02T14:21:57.311Z,4.32
2023-05-02T14:24:24.752Z,3.67
2023-05-02T14:26:52.330Z,3.30
2023-05-02T14:29:20.063Z,1.70
2023-05-02T14:31:47.984Z,4.20
2023-05-02T14:34:15.720Z,3.72
2023-05-02T14:36:43.690Z,2.78
2023-05-02T14:39:13.275Z,4.28
2023-05-02T14:41:40.958Z,3.35
2023-05-02T14:44:08.380Z,3.40
2023-05-02T14:46:36.095Z,2.65
2023-05-02T14:49:03.419Z,3.50
2023-05-02T14:51:32.196Z,3.15
2023-05-02T14:54:00.172Z,1.60
2023-05-02T14:56:28.371Z,1.80
2023-05-02T14:58:55.821Z,2.15
2023-05-02T15:01:23.751Z,2.17
2023-05-02T15:04:05.927Z,1.80
2023-05-02T15:06:36.427Z,1.55
2023-05-02T15:09:05.243Z,1.80
2023-05-02T15:11:33.143Z,2.03
2023-05-02T15:14:00.531Z,2.97
2023-05-02T15:16:28.230Z,2.60
2023-05-02T15:18:55.901Z,4.18
2023-05-02T15:21:23.785Z,3.08
2023-05-02T15:23:51.186Z,2.55
2023-05-02T15:26:19.041Z,3.35
2023-05-02T15:28:46.415Z,3.30
2023-05-02T15:31:15.198Z,2.78
2023-05-02T15:33:44.565Z,3.10
2023-05-02T15:36:14.604Z,3.83
2023-05-02T15:38:43.153Z,4.30
2023-05-02T15:41:11.782Z,3.20
2023-05-02T15:43:39.172Z,3.42
2023-05-02T15:46:06.772Z,4.95
2023-05-02T15:48:35.087Z,3.75
2023-05-02T15:51:09.860Z,3.80
2023-05-02T15:53:39.776Z,3.97
2023-05-02T15:56:13.531Z,4.30
2023-05-02T15:58:40.954Z,5.28
2023-05-02T16:01:08.716Z,4.72
2023-05-02T16:03:36.786Z,4.45
2023-05-02T16:06:07.942Z,5.63
2023-05-02T16:08:36.142Z,7.10
2023-05-02T16:11:06.008Z,7.10
2023-05-02T16:13:33.406Z,6.72
2023-05-02T16:16:01.128Z,5.93
2023-05-02T16:18:28.732Z,4.78
2023-05-02T16:20:59.996Z,4.93
2023-05-02T16:23:27.466Z,5.63
2023-05-02T16:25:59.177Z,5.53
2023-05-02T16:28:26.717Z,7.20
2023-05-02T16:30:55.713Z,8.93
2023-05-02T16:33:23.375Z,12.07
2023-05-02T16:36:01.944Z,8.35
2023-05-02T16:38:29.763Z,5.75
2023-05-02T16:40:57.788Z,6.32
2023-05-02T16:43:25.521Z,7.80
2023-05-02T16:46:04.244Z,7.95
2023-05-02T16:48:32.470Z,9.25
2023-05-02T16:51:03.290Z,9.15
2023-05-02T16:53:33.682Z,9.00
2023-05-02T16:56:02.009Z,10.35
2023-05-02T17:06:27.109Z,7.28
2023-05-02T17:08:54.807Z,8.63
2023-05-02T17:11:23.230Z,7.57
2023-05-02T17:13:52.815Z,8.23
2023-05-02T17:16:23.118Z,7.95
2023-05-02T17:18:50.952Z,6.95
2023-05-02T17:21:18.384Z,5.05
2023-05-02T17:23:46.157Z,4.07
2023-05-02T17:26:16.736Z,4.72
2023-05-02T17:28:45.219Z,4.38
2023-05-02T17:31:13.282Z,5.05
2023-05-02T17:33:42.556Z,6.30
2023-05-02T17:36:10.010Z,5.10
2023-05-02T17:38:37.912Z,5.60
2023-05-02T17:41:06.232Z,4.95
2023-05-02T17:43:33.932Z,5.03
2023-05-02T17:46:07.896Z,4.07
2023-05-02T17:48:37.101Z,3.88
2023-05-02T17:51:05.093Z,3.60
2023-05-02T17:53:33.878Z,4.07
2023-05-02T17:56:03.464Z,3.80
2023-05-02T17:58:32.161Z,3.20
2023-05-02T18:01:10.393Z,3.30
2023-05-02T18:03:38.975Z,5.78
2023-05-02T18:06:06.797Z,4.78
2023-05-02T18:08:34.704Z,5.10
2023-05-02T18:11:05.138Z,3.30
2023-05-02T18:13:33.235Z,2.97
2023-05-02T18:16:04.988Z,3.97
2023-05-02T18:18:33.420Z,3.70
2023-05-02T18:21:09.891Z,3.70
2023-05-02T18:23:37.941Z,4.03
2023-05-02T18:26:12.126Z,4.03
2023-05-02T18:28:42.709Z,3.33
2023-05-02T18:31:17.906Z,5.47
2023-05-02T18:33:47.166Z,5.07
2023-05-02T18:36:19.371Z,7.72
2023-05-02T18:38:47.280Z,6.25
2023-05-02T18:41:14.536Z,8.32
2023-05-02T18:43:42.355Z,5.32
2023-05-02T18:46:09.956Z,6.88
2023-05-02T18:48:37.667Z,6.95
2023-05-02T18:51:05.320Z,6.18
2023-05-02T18:53:33.798Z,5.63
2023-05-02T18:56:01.356Z,6.78
2023-05-02T18:58:29.241Z,6.40
2023-05-02T19:00:57.523Z,7.50
2023-05-02T19:03:27.034Z,4.95
2023-05-02T19:05:54.481Z,5.88
2023-05-02T19:08:24.078Z,6.55
2023-05-02T19:10:51.759Z,11.43
2023-05-02T19:13:20.573Z,7.40
2023-05-02T19:15:48.450Z,6.78
2023-05-02T19:18:17.598Z,5.07
2023-05-02T19:20:46.803Z,10.00
2023-05-02T19:23:20.298Z,6.15
2023-05-02T19:25:47.953Z,9.55
2023-05-02T19:28:18.686Z,6.60
2023-05-02T19:30:47.093Z,5.60
2023-05-02T19:33:14.793Z,5.38
2023-05-02T19:35:42.612Z,5.15
2023-05-02T19:38:10.244Z,9.68
2023-05-02T19:40:37.502Z,5.65
2023-05-02T19:43:05.205Z,7.50
2023-05-02T19:52:04.669Z,6.80
2023-05-02T19:54:33.564Z,8.60
2023-05-02T19:57:02.963Z,6.85
2023-05-02T19:59:30.614Z,6.80
2023-05-02T20:01:58.954Z,10.43
2023-05-02T20:04:27.957Z,9.32
2023-05-02T20:06:55.437Z,7.55
2023-05-02T20:09:23.203Z,7.88
2023-05-02T20:11:50.351Z,10.73
2023-05-02T20:14:19.046Z,13.38
2023-05-02T20:16:46.527Z,10.55
2023-05-02T20:19:14.297Z,8.88
2023-05-02T20:21:41.607Z,7.63
2023-05-02T20:24:09.193Z,7.22
2023-05-02T20:26:37.550Z,7.28
2023-05-02T20:29:05.240Z,7.50
2023-05-02T20:31:32.719Z,9.05
2023-05-02T20:34:00.563Z,8.05
2023-05-02T20:36:29.545Z,7.88
2023-05-02T20:38:58.035Z,8.35
2023-05-02T20:41:27.017Z,11.38
2023-05-02T20:43:55.414Z,12.30
2023-05-02T20:46:25.938Z,12.90
2023-05-02T20:48:53.865Z,9.40
2023-05-02T20:51:21.690Z,9.30
2023-05-02T20:53:49.348Z,9.70
2023-05-02T20:56:16.732Z,10.02
2023-05-02T20:58:44.488Z,9.48
2023-05-02T21:01:12.377Z,9.60
2023-05-02T21:03:41.366Z,8.45
2023-05-02T21:06:10.313Z,8.13
2023-05-02T21:08:38.073Z,7.80
2023-05-02T21:11:15.291Z,8.48
2023-05-02T21:13:43.932Z,8.52
2023-05-02T21:16:18.844Z,9.98
2023-05-02T21:18:47.683Z,17.20
2023-05-02T21:21:15.135Z,17.40
2023-05-02T21:23:42.828Z,25.48
2023-05-02T21:26:10.265Z,15.43
2023-05-02T21:28:38.901Z,13.20
2023-05-02T21:31:07.936Z,8.77
2023-05-02T21:33:36.000Z,8.35
2023-05-02T21:36:03.849Z,10.13
2023-05-02T21:38:31.552Z,8.50
2023-05-02T21:41:03.425Z,8.35
2023-05-02T21:43:34.256Z,8.25
2023-05-02T21:46:01.820Z,11.27
2023-05-02T21:48:29.751Z,13.35
2023-05-02T21:50:57.132Z,16.85
2023-05-02T21:53:25.019Z,17.27
2023-05-02T21:55:52.916Z,13.70
2023-05-02T21:58:20.709Z,11.75
2023-05-02T22:00:48.082Z,11.38
2023-05-02T22:03:16.003Z,11.30
2023-05-02T22:05:45.670Z,13.93
2023-05-02T22:08:13.699Z,14.07
2023-05-02T22:10:42.950Z,15.35
2023-05-02T22:13:12.858Z,18.90
2023-05-02T22:15:43.210Z,19.58
2023-05-02T22:18:11.054Z,24.63
2023-05-02T22:20:38.291Z,23.00
2023-05-02T22:23:06.029Z,23.60
2023-05-02T22:25:33.312Z,16.92
2023-05-02T22:28:04.141Z,14.95
2023-05-02T22:30:31.655Z,13.60
2023-05-02T22:32:59.263Z,10.63
2023-05-02T22:35:26.911Z,8.77
2023-05-02T22:37:54.660Z,8.68
2023-05-02T22:40:21.857Z,9.30
2023-05-02T22:42:51.527Z,8.90
2023-05-02T22:45:18.863Z,9.70
2023-05-02T22:47:46.478Z,9.68
2023-05-02T22:50:14.517Z,10.52
2023-05-02T22:52:42.592Z,10.30
2023-05-02T22:55:10.106Z,9.93
2023-05-02T22:57:38.094Z,10.70
2023-05-02T23:00:07.591Z,9.23
2023-05-02T23:02:36.110Z,10.30
2023-05-02T23:05:07.237Z,12.00
2023-05-02T23:07:34.831Z,13.43
2023-05-02T23:10:02.350Z,14.40
2023-05-02T23:12:30.261Z,14.73
2023-05-02T23:14:58.158Z,13.13
2023-05-02T23:17:26.011Z,13.52
2023-05-02T23:19:53.150Z,13.80
2023-05-02T23:22:20.655Z,14.30
2023-05-02T23:24:48.196Z,13.15
2023-05-02T23:27:15.840Z,12.57
2023-05-02T23:29:43.069Z,12.00
2023-05-02T23:32:13.163Z,10.27
2023-05-02T23:34:41.454Z,11.05
2023-05-02T23:37:09.502Z,11.85
2023-05-02T23:39:36.772Z,10.60
2023-05-02T23:42:04.589Z,10.70
2023-05-02T23:44:31.869Z,11.65
2023-05-02T23:47:00.226Z,12.15
2023-05-02T23:49:27.543Z,11.75
2023-05-02T23:51:55.030Z,11.48
2023-05-02T23:54:25.282Z,11.88
2023-05-02T23:56:53.762Z,12.80
2023-05-02T23:59:20.868Z,13.05
